sensor_id;sensor_type;location;lat;lon;timestamp;temperature;humidity
4564;DHT22;2294;51.818;8.484;2022-09-09T00:00:19;14.70;99.90
4564;DHT22;2294;51.818;8.484;2022-09-09T00:02:52;14.70;99.90
4564;DHT22;2294;51.818;8.484;2022-09-09T00:05:29;14.90;99.90
4564;DHT22;2294;51.818;8.484;2022-09-09T00:08:00;15.00;99.90
4564;DHT22;2294;51.818;8.484;2022-09-09T00:10:33;15.20;99.90
4564;DHT22;2294;51.818;8.484;2022-09-09T00:13:13;15.40;99.90
4564;DHT22;2294;51.818;8.484;2022-09-09T00:15:46;15.40;99.90
4564;DHT22;2294;51.818;8.484;2022-09-09T00:18:23;15.20;99.90
4564;DHT22;2294;51.818;8.484;2022-09-09T00:20:57;15.30;99.90
4564;DHT22;2294;51.818;8.484;2022-09-09T00:23:27;15.30;99.90
4564;DHT22;2294;51.818;8.484;2022-09-09T00:26:02;15.30;99.90
4564;DHT22;2294;51.818;8.484;2022-09-09T00:28:33;15.30;99.90
4564;DHT22;2294;51.818;8.484;2022-09-09T00:31:11;15.30;99.90
4564;DHT22;2294;51.818;8.484;2022-09-09T00:33:38;15.60;99.90
4564;DHT22;2294;51.818;8.484;2022-09-09T00:36:12;15.70;99.90
4564;DHT22;2294;51.818;8.484;2022-09-09T00:38:42;15.80;99.90
4564;DHT22;2294;51.818;8.484;2022-09-09T00:41:17;15.60;99.90
4564;DHT22;2294;51.818;8.484;2022-09-09T00:43:53;15.80;99.90
4564;DHT22;2294;51.818;8.484;2022-09-09T00:46:41;15.80;99.90
4564;DHT22;2294;51.818;8.484;2022-09-09T00:49:19;15.90;99.90
4564;DHT22;2294;51.818;8.484;2022-09-09T00:51:59;15.80;99.90
4564;DHT22;2294;51.818;8.484;2022-09-09T00:54:36;15.90;99.90
4564;DHT22;2294;51.818;8.484;2022-09-09T00:57:17;15.80;99.90
4564;DHT22;2294;51.818;8.484;2022-09-09T00:59:51;15.80;99.90
4564;DHT22;2294;51.818;8.484;2022-09-09T01:02:32;15.70;99.90
4564;DHT22;2294;51.818;8.484;2022-09-09T01:05:10;15.70;99.90
4564;DHT22;2294;51.818;8.484;2022-09-09T01:07:42;15.40;99.90
4564;DHT22;2294;51.818;8.484;2022-09-09T01:10:21;15.40;99.90
4564;DHT22;2294;51.818;8.484;2022-09-09T01:12:56;15.40;99.90
4564;DHT22;2294;51.818;8.484;2022-09-09T01:15:28;15.40;99.90
4564;DHT22;2294;51.818;8.484;2022-09-09T01:18:00;15.30;99.90
4564;DHT22;2294;51.818;8.484;2022-09-09T01:20:31;15.20;99.90
4564;DHT22;2294;51.818;8.484;2022-09-09T01:23:16;15.20;99.90
4564;DHT22;2294;51.818;8.484;2022-09-09T01:26:17;15.20;99.90
4564;DHT22;2294;51.818;8.484;2022-09-09T01:28:46;15.00;99.90
4564;DHT22;2294;51.818;8.484;2022-09-09T01:31:18;15.00;99.90
4564;DHT22;2294;51.818;8.484;2022-09-09T01:33:46;15.00;99.90
4564;DHT22;2294;51.818;8.484;2022-09-09T01:36:18;14.90;99.90
4564;DHT22;2294;51.818;8.484;2022-09-09T01:38:46;14.90;99.90
4564;DHT22;2294;51.818;8.484;2022-09-09T01:41:13;14.80;99.90
4564;DHT22;2294;51.818;8.484;2022-09-09T01:43:41;14.80;99.90
4564;DHT22;2294;51.818;8.484;2022-09-09T01:46:08;14.70;99.90
4564;DHT22;2294;51.818;8.484;2022-09-09T01:48:36;14.60;99.90
4564;DHT22;2294;51.818;8.484;2022-09-09T01:51:03;14.60;99.90
4564;DHT22;2294;51.818;8.484;2022-09-09T01:53:30;14.50;99.90
4564;DHT22;2294;51.818;8.484;2022-09-09T01:56:07;14.50;99.90
4564;DHT22;2294;51.818;8.484;2022-09-09T01:58:47;14.50;99.90
4564;DHT22;2294;51.818;8.484;2022-09-09T02:01:26;14.50;99.90
4564;DHT22;2294;51.818;8.484;2022-09-09T02:03:57;14.50;99.90
4564;DHT22;2294;51.818;8.484;2022-09-09T02:06:28;14.50;99.90
4564;DHT22;2294;51.818;8.484;2022-09-09T02:08:57;14.50;99.90
4564;DHT22;2294;51.818;8.484;2022-09-09T02:11:27;14.60;99.90
4564;DHT22;2294;51.818;8.484;2022-09-09T02:13:57;14.60;99.90
4564;DHT22;2294;51.818;8.484;2022-09-09T02:16:30;14.60;99.90
4564;DHT22;2294;51.818;8.484;2022-09-09T02:19:02;14.60;99.90
4564;DHT22;2294;51.818;8.484;2022-09-09T02:21:31;14.50;99.90
4564;DHT22;2294;51.818;8.484;2022-09-09T02:24:04;14.50;99.90
4564;DHT22;2294;51.818;8.484;2022-09-09T02:26:34;14.50;99.90
4564;DHT22;2294;51.818;8.484;2022-09-09T02:29:08;14.60;99.90
4564;DHT22;2294;51.818;8.484;2022-09-09T02:31:37;14.60;99.90
4564;DHT22;2294;51.818;8.484;2022-09-09T02:34:05;14.70;99.90
4564;DHT22;2294;51.818;8.484;2022-09-09T02:36:37;14.80;99.90
4564;DHT22;2294;51.818;8.484;2022-09-09T02:39:07;14.80;99.90
4564;DHT22;2294;51.818;8.484;2022-09-09T02:41:37;14.70;99.90
4564;DHT22;2294;51.818;8.484;2022-09-09T02:44:10;14.80;99.90
4564;DHT22;2294;51.818;8.484;2022-09-09T02:46:49;14.90;99.90
4564;DHT22;2294;51.818;8.484;2022-09-09T02:49:23;14.90;99.90
4564;DHT22;2294;51.818;8.484;2022-09-09T02:52:00;14.90;99.90
4564;DHT22;2294;51.818;8.484;2022-09-09T02:54:30;14.90;99.90
4564;DHT22;2294;51.818;8.484;2022-09-09T02:57:04;14.90;99.90
4564;DHT22;2294;51.818;8.484;2022-09-09T02:59:34;14.80;99.90
4564;DHT22;2294;51.818;8.484;2022-09-09T03:02:01;14.70;99.90
4564;DHT22;2294;51.818;8.484;2022-09-09T03:04:28;14.70;99.90
4564;DHT22;2294;51.818;8.484;2022-09-09T03:06:55;14.70;99.90
4564;DHT22;2294;51.818;8.484;2022-09-09T03:09:22;14.70;99.90
4564;DHT22;2294;51.818;8.484;2022-09-09T03:11:49;14.70;99.90
4564;DHT22;2294;51.818;8.484;2022-09-09T03:14:16;14.80;99.90
4564;DHT22;2294;51.818;8.484;2022-09-09T03:16:48;14.80;99.90
4564;DHT22;2294;51.818;8.484;2022-09-09T03:19:14;14.90;99.90
4564;DHT22;2294;51.818;8.484;2022-09-09T03:21:41;14.90;99.90
4564;DHT22;2294;51.818;8.484;2022-09-09T03:24:08;15.00;99.90
4564;DHT22;2294;51.818;8.484;2022-09-09T03:26:35;15.00;99.90
4564;DHT22;2294;51.818;8.484;2022-09-09T03:29:03;15.00;99.90
4564;DHT22;2294;51.818;8.484;2022-09-09T03:31:32;15.10;99.90
4564;DHT22;2294;51.818;8.484;2022-09-09T03:34:00;15.10;99.90
4564;DHT22;2294;51.818;8.484;2022-09-09T03:36:27;15.20;99.90
4564;DHT22;2294;51.818;8.484;2022-09-09T03:38:55;15.30;99.90
4564;DHT22;2294;51.818;8.484;2022-09-09T03:41:22;15.30;99.90
4564;DHT22;2294;51.818;8.484;2022-09-09T03:43:49;15.40;99.90
4564;DHT22;2294;51.818;8.484;2022-09-09T03:46:16;15.40;99.90
4564;DHT22;2294;51.818;8.484;2022-09-09T03:48:43;15.40;99.90
4564;DHT22;2294;51.818;8.484;2022-09-09T03:51:12;15.50;99.90
4564;DHT22;2294;51.818;8.484;2022-09-09T03:53:39;15.60;99.90
4564;DHT22;2294;51.818;8.484;2022-09-09T03:56:06;15.60;99.90
4564;DHT22;2294;51.818;8.484;2022-09-09T03:58:34;15.60;99.90
4564;DHT22;2294;51.818;8.484;2022-09-09T04:01:02;15.60;99.90
4564;DHT22;2294;51.818;8.484;2022-09-09T04:03:30;15.70;99.90
4564;DHT22;2294;51.818;8.484;2022-09-09T04:05:59;15.70;99.90
4564;DHT22;2294;51.818;8.484;2022-09-09T04:08:28;15.70;99.90
4564;DHT22;2294;51.818;8.484;2022-09-09T04:10:57;15.80;99.90
4564;DHT22;2294;51.818;8.484;2022-09-09T04:13:24;15.80;99.90
4564;DHT22;2294;51.818;8.484;2022-09-09T04:15:52;15.70;99.90
4564;DHT22;2294;51.818;8.484;2022-09-09T04:18:20;15.60;99.90
4564;DHT22;2294;51.818;8.484;2022-09-09T04:20:47;15.50;99.90
4564;DHT22;2294;51.818;8.484;2022-09-09T04:23:14;15.60;99.90
4564;DHT22;2294;51.818;8.484;2022-09-09T04:25:45;15.50;99.90
4564;DHT22;2294;51.818;8.484;2022-09-09T04:28:13;15.60;99.90
4564;DHT22;2294;51.818;8.484;2022-09-09T04:30:40;15.50;99.90
4564;DHT22;2294;51.818;8.484;2022-09-09T04:33:07;15.40;99.90
4564;DHT22;2294;51.818;8.484;2022-09-09T04:35:35;15.40;99.90
4564;DHT22;2294;51.818;8.484;2022-09-09T04:38:02;15.40;99.90
4564;DHT22;2294;51.818;8.484;2022-09-09T04:40:29;15.30;99.90
4564;DHT22;2294;51.818;8.484;2022-09-09T04:42:59;15.30;99.90
4564;DHT22;2294;51.818;8.484;2022-09-09T04:45:26;15.30;99.90
4564;DHT22;2294;51.818;8.484;2022-09-09T04:47:53;15.30;99.90
4564;DHT22;2294;51.818;8.484;2022-09-09T04:50:20;15.30;99.90
4564;DHT22;2294;51.818;8.484;2022-09-09T04:52:47;15.30;99.90
4564;DHT22;2294;51.818;8.484;2022-09-09T04:55:14;15.20;99.90
4564;DHT22;2294;51.818;8.484;2022-09-09T04:57:41;15.20;99.90
4564;DHT22;2294;51.818;8.484;2022-09-09T05:00:11;15.20;99.90
4564;DHT22;2294;51.818;8.484;2022-09-09T05:02:39;15.20;99.90
4564;DHT22;2294;51.818;8.484;2022-09-09T05:05:08;15.20;99.90
4564;DHT22;2294;51.818;8.484;2022-09-09T05:07:36;15.30;99.90
4564;DHT22;2294;51.818;8.484;2022-09-09T05:10:04;15.30;99.90
4564;DHT22;2294;51.818;8.484;2022-09-09T05:12:31;15.40;99.90
4564;DHT22;2294;51.818;8.484;2022-09-09T05:14:58;15.30;99.90
4564;DHT22;2294;51.818;8.484;2022-09-09T05:17:26;15.40;99.90
4564;DHT22;2294;51.818;8.484;2022-09-09T05:19:54;15.60;99.90
4564;DHT22;2294;51.818;8.484;2022-09-09T05:22:21;15.60;99.90
4564;DHT22;2294;51.818;8.484;2022-09-09T05:24:48;15.60;99.90
4564;DHT22;2294;51.818;8.484;2022-09-09T05:27:16;15.60;99.90
4564;DHT22;2294;51.818;8.484;2022-09-09T05:29:43;15.70;99.90
4564;DHT22;2294;51.818;8.484;2022-09-09T05:32:10;15.70;99.90
4564;DHT22;2294;51.818;8.484;2022-09-09T05:34:38;15.80;99.90
4564;DHT22;2294;51.818;8.484;2022-09-09T05:37:05;15.80;99.90
4564;DHT22;2294;51.818;8.484;2022-09-09T05:39:33;15.80;99.90
4564;DHT22;2294;51.818;8.484;2022-09-09T05:42:02;16.00;99.90
4564;DHT22;2294;51.818;8.484;2022-09-09T05:44:30;16.00;99.90
4564;DHT22;2294;51.818;8.484;2022-09-09T05:46:57;16.10;99.90
4564;DHT22;2294;51.818;8.484;2022-09-09T05:49:24;16.10;99.90
4564;DHT22;2294;51.818;8.484;2022-09-09T05:51:52;16.20;99.90
4564;DHT22;2294;51.818;8.484;2022-09-09T05:54:19;16.20;99.90
4564;DHT22;2294;51.818;8.484;2022-09-09T05:56:46;16.20;99.90
4564;DHT22;2294;51.818;8.484;2022-09-09T05:59:15;16.20;99.90
4564;DHT22;2294;51.818;8.484;2022-09-09T06:01:42;16.30;99.90
4564;DHT22;2294;51.818;8.484;2022-09-09T06:04:09;16.30;99.90
4564;DHT22;2294;51.818;8.484;2022-09-09T06:06:37;16.20;99.90
4564;DHT22;2294;51.818;8.484;2022-09-09T06:09:07;16.30;99.90
4564;DHT22;2294;51.818;8.484;2022-09-09T06:11:37;16.30;99.90
4564;DHT22;2294;51.818;8.484;2022-09-09T06:14:05;16.40;99.90
4564;DHT22;2294;51.818;8.484;2022-09-09T06:16:32;16.40;99.90
4564;DHT22;2294;51.818;8.484;2022-09-09T06:19:00;16.40;99.90
4564;DHT22;2294;51.818;8.484;2022-09-09T06:21:29;16.50;99.90
4564;DHT22;2294;51.818;8.484;2022-09-09T06:23:58;16.50;99.90
4564;DHT22;2294;51.818;8.484;2022-09-09T06:26:29;16.70;99.90
4564;DHT22;2294;51.818;8.484;2022-09-09T06:28:56;16.70;99.90
4564;DHT22;2294;51.818;8.484;2022-09-09T06:31:26;16.80;99.90
4564;DHT22;2294;51.818;8.484;2022-09-09T06:33:56;16.70;99.90
4564;DHT22;2294;51.818;8.484;2022-09-09T06:36:25;16.80;99.90
4564;DHT22;2294;51.818;8.484;2022-09-09T06:38:53;16.80;99.90
4564;DHT22;2294;51.818;8.484;2022-09-09T06:41:21;16.80;99.90
4564;DHT22;2294;51.818;8.484;2022-09-09T06:43:50;17.00;99.90
4564;DHT22;2294;51.818;8.484;2022-09-09T06:46:18;17.00;99.90
4564;DHT22;2294;51.818;8.484;2022-09-09T06:48:45;17.00;99.90
4564;DHT22;2294;51.818;8.484;2022-09-09T06:51:13;17.00;99.90
4564;DHT22;2294;51.818;8.484;2022-09-09T06:53:42;17.00;99.90
4564;DHT22;2294;51.818;8.484;2022-09-09T06:56:20;17.10;99.90
4564;DHT22;2294;51.818;8.484;2022-09-09T06:58:51;17.10;99.90
4564;DHT22;2294;51.818;8.484;2022-09-09T07:01:19;17.00;99.90
4564;DHT22;2294;51.818;8.484;2022-09-09T07:03:47;17.10;99.90
4564;DHT22;2294;51.818;8.484;2022-09-09T07:06:16;17.20;99.90
4564;DHT22;2294;51.818;8.484;2022-09-09T07:08:48;17.20;99.90
4564;DHT22;2294;51.818;8.484;2022-09-09T07:11:16;17.20;99.90
4564;DHT22;2294;51.818;8.484;2022-09-09T07:13:43;17.40;99.90
4564;DHT22;2294;51.818;8.484;2022-09-09T07:16:12;17.50;99.90
4564;DHT22;2294;51.818;8.484;2022-09-09T07:18:40;17.60;99.90
4564;DHT22;2294;51.818;8.484;2022-09-09T07:21:08;17.70;99.90
4564;DHT22;2294;51.818;8.484;2022-09-09T07:23:35;17.90;99.90
4564;DHT22;2294;51.818;8.484;2022-09-09T07:26:06;18.10;99.90
4564;DHT22;2294;51.818;8.484;2022-09-09T07:28:33;18.20;99.90
4564;DHT22;2294;51.818;8.484;2022-09-09T07:31:01;18.30;99.90
4564;DHT22;2294;51.818;8.484;2022-09-09T07:33:31;18.60;99.90
4564;DHT22;2294;51.818;8.484;2022-09-09T07:36:04;18.60;99.90
4564;DHT22;2294;51.818;8.484;2022-09-09T07:38:31;18.60;99.90
4564;DHT22;2294;51.818;8.484;2022-09-09T07:41:03;18.60;99.90
4564;DHT22;2294;51.818;8.484;2022-09-09T07:43:31;18.70;99.90
4564;DHT22;2294;51.818;8.484;2022-09-09T07:45:59;18.60;99.90
4564;DHT22;2294;51.818;8.484;2022-09-09T07:48:27;18.60;99.90
4564;DHT22;2294;51.818;8.484;2022-09-09T07:51:05;18.80;99.90
4564;DHT22;2294;51.818;8.484;2022-09-09T07:53:33;18.90;99.90
4564;DHT22;2294;51.818;8.484;2022-09-09T07:56:06;18.80;99.90
4564;DHT22;2294;51.818;8.484;2022-09-09T07:58:35;18.90;99.90
4564;DHT22;2294;51.818;8.484;2022-09-09T08:01:06;19.10;99.90
4564;DHT22;2294;51.818;8.484;2022-09-09T08:03:33;19.00;99.90
4564;DHT22;2294;51.818;8.484;2022-09-09T08:06:02;19.00;99.90
4564;DHT22;2294;51.818;8.484;2022-09-09T08:08:30;18.90;99.90
4564;DHT22;2294;51.818;8.484;2022-09-09T08:11:05;18.90;99.90
4564;DHT22;2294;51.818;8.484;2022-09-09T08:13:33;18.70;99.90
4564;DHT22;2294;51.818;8.484;2022-09-09T08:16:05;18.60;99.90
4564;DHT22;2294;51.818;8.484;2022-09-09T08:18:32;18.70;99.90
4564;DHT22;2294;51.818;8.484;2022-09-09T08:21:07;18.50;99.90
4564;DHT22;2294;51.818;8.484;2022-09-09T08:23:34;18.40;99.90
4564;DHT22;2294;51.818;8.484;2022-09-09T08:26:05;18.40;99.90
4564;DHT22;2294;51.818;8.484;2022-09-09T08:28:34;18.40;99.90
4564;DHT22;2294;51.818;8.484;2022-09-09T08:31:09;18.40;99.90
4564;DHT22;2294;51.818;8.484;2022-09-09T08:33:37;18.70;99.90
4564;DHT22;2294;51.818;8.484;2022-09-09T08:36:08;18.70;99.90
4564;DHT22;2294;51.818;8.484;2022-09-09T08:38:35;18.80;99.90
4564;DHT22;2294;51.818;8.484;2022-09-09T08:41:31;18.90;99.90
4564;DHT22;2294;51.818;8.484;2022-09-09T08:44:05;19.10;99.90
4564;DHT22;2294;51.818;8.484;2022-09-09T08:46:41;19.20;99.90
4564;DHT22;2294;51.818;8.484;2022-09-09T08:49:24;19.40;99.90
4564;DHT22;2294;51.818;8.484;2022-09-09T08:51:58;19.50;99.90
4564;DHT22;2294;51.818;8.484;2022-09-09T08:54:27;19.60;99.90
4564;DHT22;2294;51.818;8.484;2022-09-09T08:56:56;19.70;99.90
4564;DHT22;2294;51.818;8.484;2022-09-09T08:59:23;20.00;99.90
4564;DHT22;2294;51.818;8.484;2022-09-09T09:01:59;19.90;99.90
4564;DHT22;2294;51.818;8.484;2022-09-09T09:04:36;19.50;99.90
4564;DHT22;2294;51.818;8.484;2022-09-09T09:07:17;19.20;99.90
4564;DHT22;2294;51.818;8.484;2022-09-09T09:13:13;19.60;99.90
4564;DHT22;2294;51.818;8.484;2022-09-09T09:15:42;19.50;99.90
4564;DHT22;2294;51.818;8.484;2022-09-09T09:18:12;19.30;99.90
4564;DHT22;2294;51.818;8.484;2022-09-09T09:20:46;19.10;99.90
4564;DHT22;2294;51.818;8.484;2022-09-09T09:23:22;18.80;99.90
4564;DHT22;2294;51.818;8.484;2022-09-09T09:25:52;18.70;99.90
4564;DHT22;2294;51.818;8.484;2022-09-09T09:28:23;18.60;99.90
4564;DHT22;2294;51.818;8.484;2022-09-09T09:30:54;18.60;99.90
4564;DHT22;2294;51.818;8.484;2022-09-09T09:33:26;18.60;99.90
4564;DHT22;2294;51.818;8.484;2022-09-09T09:35:56;18.70;99.90
4564;DHT22;2294;51.818;8.484;2022-09-09T09:38:28;19.20;99.90
4564;DHT22;2294;51.818;8.484;2022-09-09T09:40:56;19.30;99.90
4564;DHT22;2294;51.818;8.484;2022-09-09T09:43:26;19.40;99.90
4564;DHT22;2294;51.818;8.484;2022-09-09T09:45:53;19.30;99.90
4564;DHT22;2294;51.818;8.484;2022-09-09T09:48:20;19.30;99.90
4564;DHT22;2294;51.818;8.484;2022-09-09T09:50:50;19.40;99.90
4564;DHT22;2294;51.818;8.484;2022-09-09T09:53:21;19.50;99.90
4564;DHT22;2294;51.818;8.484;2022-09-09T09:55:54;19.60;99.90
4564;DHT22;2294;51.818;8.484;2022-09-09T09:58:21;19.50;99.90
4564;DHT22;2294;51.818;8.484;2022-09-09T10:00:49;19.30;99.90
4564;DHT22;2294;51.818;8.484;2022-09-09T10:03:22;19.20;99.90
4564;DHT22;2294;51.818;8.484;2022-09-09T10:05:50;19.30;99.90
4564;DHT22;2294;51.818;8.484;2022-09-09T10:08:17;19.30;99.90
4564;DHT22;2294;51.818;8.484;2022-09-09T10:11:07;19.30;99.90
4564;DHT22;2294;51.818;8.484;2022-09-09T10:13:48;19.60;99.90
4564;DHT22;2294;51.818;8.484;2022-09-09T10:16:24;19.80;99.90
4564;DHT22;2294;51.818;8.484;2022-09-09T10:18:59;19.70;99.90
4564;DHT22;2294;51.818;8.484;2022-09-09T10:21:51;19.50;99.90
4564;DHT22;2294;51.818;8.484;2022-09-09T10:24:35;19.50;99.90
4564;DHT22;2294;51.818;8.484;2022-09-09T10:27:14;19.50;99.90
4564;DHT22;2294;51.818;8.484;2022-09-09T10:30:00;19.50;99.90
4564;DHT22;2294;51.818;8.484;2022-09-09T10:32:41;19.60;99.90
4564;DHT22;2294;51.818;8.484;2022-09-09T10:35:20;19.60;99.90
4564;DHT22;2294;51.818;8.484;2022-09-09T10:38:15;20.00;99.90
4564;DHT22;2294;51.818;8.484;2022-09-09T10:40:50;20.50;99.90
4564;DHT22;2294;51.818;8.484;2022-09-09T10:43:42;20.70;99.90
4564;DHT22;2294;51.818;8.484;2022-09-09T10:46:17;20.00;99.90
4564;DHT22;2294;51.818;8.484;2022-09-09T10:48:58;20.20;99.90
4564;DHT22;2294;51.818;8.484;2022-09-09T10:51:36;20.60;99.90
4564;DHT22;2294;51.818;8.484;2022-09-09T10:54:21;20.60;99.90
4564;DHT22;2294;51.818;8.484;2022-09-09T10:56:55;20.20;99.90
4564;DHT22;2294;51.818;8.484;2022-09-09T10:59:27;20.40;99.90
4564;DHT22;2294;51.818;8.484;2022-09-09T11:01:58;20.60;99.90
4564;DHT22;2294;51.818;8.484;2022-09-09T11:04:31;20.70;99.90
4564;DHT22;2294;51.818;8.484;2022-09-09T11:07:07;20.40;99.90
4564;DHT22;2294;51.818;8.484;2022-09-09T11:09:38;20.20;99.90
4564;DHT22;2294;51.818;8.484;2022-09-09T11:12:11;20.10;99.90
4564;DHT22;2294;51.818;8.484;2022-09-09T11:14:43;20.20;99.90
4564;DHT22;2294;51.818;8.484;2022-09-09T11:17:13;20.20;99.90
4564;DHT22;2294;51.818;8.484;2022-09-09T11:19:43;20.30;99.90
4564;DHT22;2294;51.818;8.484;2022-09-09T11:22:17;20.20;99.90
4564;DHT22;2294;51.818;8.484;2022-09-09T11:24:51;20.20;99.90
4564;DHT22;2294;51.818;8.484;2022-09-09T11:27:23;20.30;99.90
4564;DHT22;2294;51.818;8.484;2022-09-09T11:30:05;20.40;99.90
4564;DHT22;2294;51.818;8.484;2022-09-09T11:32:56;20.20;99.90
4564;DHT22;2294;51.818;8.484;2022-09-09T11:35:40;20.10;99.90
4564;DHT22;2294;51.818;8.484;2022-09-09T11:38:18;20.10;99.90
4564;DHT22;2294;51.818;8.484;2022-09-09T11:40:46;19.80;99.90
4564;DHT22;2294;51.818;8.484;2022-09-09T11:43:17;19.80;99.90
4564;DHT22;2294;51.818;8.484;2022-09-09T11:45:53;19.90;99.90
4564;DHT22;2294;51.818;8.484;2022-09-09T11:48:26;19.90;99.90
4564;DHT22;2294;51.818;8.484;2022-09-09T11:50:59;20.10;99.90
4564;DHT22;2294;51.818;8.484;2022-09-09T11:53:26;20.30;99.90
4564;DHT22;2294;51.818;8.484;2022-09-09T11:56:08;21.00;99.90
4564;DHT22;2294;51.818;8.484;2022-09-09T11:58:41;21.60;99.90
4564;DHT22;2294;51.818;8.484;2022-09-09T12:01:27;22.20;99.90
4564;DHT22;2294;51.818;8.484;2022-09-09T12:04:10;22.40;99.90
4564;DHT22;2294;51.818;8.484;2022-09-09T12:06:43;22.10;99.90
4564;DHT22;2294;51.818;8.484;2022-09-09T12:09:28;22.10;99.90
4564;DHT22;2294;51.818;8.484;2022-09-09T12:12:06;22.30;99.90
4564;DHT22;2294;51.818;8.484;2022-09-09T12:14:37;22.30;99.90
4564;DHT22;2294;51.818;8.484;2022-09-09T12:17:27;22.50;99.90
4564;DHT22;2294;51.818;8.484;2022-09-09T12:20:06;22.40;99.90
4564;DHT22;2294;51.818;8.484;2022-09-09T12:22:41;22.60;99.90
4564;DHT22;2294;51.818;8.484;2022-09-09T12:25:20;22.90;99.90
4564;DHT22;2294;51.818;8.484;2022-09-09T12:27:59;23.10;99.90
4564;DHT22;2294;51.818;8.484;2022-09-09T12:30:31;23.10;99.90
4564;DHT22;2294;51.818;8.484;2022-09-09T12:33:08;22.80;99.90
4564;DHT22;2294;51.818;8.484;2022-09-09T12:35:37;23.50;99.90
4564;DHT22;2294;51.818;8.484;2022-09-09T12:38:05;23.50;99.90
4564;DHT22;2294;51.818;8.484;2022-09-09T12:40:37;22.60;99.90
4564;DHT22;2294;51.818;8.484;2022-09-09T12:43:17;22.20;99.90
4564;DHT22;2294;51.818;8.484;2022-09-09T12:45:45;21.70;99.90
4564;DHT22;2294;51.818;8.484;2022-09-09T12:48:17;22.00;99.90
4564;DHT22;2294;51.818;8.484;2022-09-09T12:50:46;22.00;99.90
4564;DHT22;2294;51.818;8.484;2022-09-09T12:53:23;21.90;99.90
4564;DHT22;2294;51.818;8.484;2022-09-09T12:55:54;21.90;99.90
4564;DHT22;2294;51.818;8.484;2022-09-09T12:58:22;22.00;99.90
4564;DHT22;2294;51.818;8.484;2022-09-09T13:00:51;22.10;99.90
4564;DHT22;2294;51.818;8.484;2022-09-09T13:03:20;22.30;99.90
4564;DHT22;2294;51.818;8.484;2022-09-09T13:05:48;22.50;99.90
4564;DHT22;2294;51.818;8.484;2022-09-09T13:08:16;22.00;99.90
4564;DHT22;2294;51.818;8.484;2022-09-09T13:10:47;21.50;99.90
4564;DHT22;2294;51.818;8.484;2022-09-09T13:13:22;21.70;99.90
4564;DHT22;2294;51.818;8.484;2022-09-09T13:15:51;22.50;99.90
4564;DHT22;2294;51.818;8.484;2022-09-09T13:18:22;22.50;99.90
4564;DHT22;2294;51.818;8.484;2022-09-09T13:20:50;22.20;99.90
4564;DHT22;2294;51.818;8.484;2022-09-09T13:23:19;22.70;99.90
4564;DHT22;2294;51.818;8.484;2022-09-09T13:25:53;22.70;99.90
4564;DHT22;2294;51.818;8.484;2022-09-09T13:28:22;23.60;99.90
4564;DHT22;2294;51.818;8.484;2022-09-09T13:30:56;24.00;99.90
4564;DHT22;2294;51.818;8.484;2022-09-09T13:33:31;23.70;99.90
4564;DHT22;2294;51.818;8.484;2022-09-09T13:36:00;24.00;99.90
4564;DHT22;2294;51.818;8.484;2022-09-09T13:38:29;24.10;99.90
4564;DHT22;2294;51.818;8.484;2022-09-09T13:40:59;24.40;99.90
4564;DHT22;2294;51.818;8.484;2022-09-09T13:43:28;25.00;99.90
4564;DHT22;2294;51.818;8.484;2022-09-09T13:45:57;26.10;99.90
4564;DHT22;2294;51.818;8.484;2022-09-09T13:48:25;25.70;99.90
4564;DHT22;2294;51.818;8.484;2022-09-09T13:51:02;25.60;99.90
4564;DHT22;2294;51.818;8.484;2022-09-09T13:53:31;27.40;99.90
4564;DHT22;2294;51.818;8.484;2022-09-09T13:55:59;27.00;99.90
4564;DHT22;2294;51.818;8.484;2022-09-09T13:58:26;26.40;99.90
4564;DHT22;2294;51.818;8.484;2022-09-09T14:00:54;26.00;99.90
4564;DHT22;2294;51.818;8.484;2022-09-09T14:03:21;28.00;99.90
4564;DHT22;2294;51.818;8.484;2022-09-09T14:05:48;25.60;99.90
4564;DHT22;2294;51.818;8.484;2022-09-09T14:08:23;26.80;99.90
4564;DHT22;2294;51.818;8.484;2022-09-09T14:10:50;24.50;99.90
4564;DHT22;2294;51.818;8.484;2022-09-09T14:13:18;24.10;99.90
4564;DHT22;2294;51.818;8.484;2022-09-09T14:15:48;23.80;99.90
4564;DHT22;2294;51.818;8.484;2022-09-09T14:18:15;23.70;99.90
4564;DHT22;2294;51.818;8.484;2022-09-09T14:20:42;26.10;99.90
4564;DHT22;2294;51.818;8.484;2022-09-09T14:23:11;26.90;99.90
4564;DHT22;2294;51.818;8.484;2022-09-09T14:25:41;26.10;99.90
4564;DHT22;2294;51.818;8.484;2022-09-09T14:28:10;24.80;99.90
4564;DHT22;2294;51.818;8.484;2022-09-09T14:30:38;24.10;99.90
4564;DHT22;2294;51.818;8.484;2022-09-09T14:33:06;23.40;99.90
4564;DHT22;2294;51.818;8.484;2022-09-09T14:35:33;23.00;99.90
4564;DHT22;2294;51.818;8.484;2022-09-09T14:38:01;23.30;99.90
4564;DHT22;2294;51.818;8.484;2022-09-09T14:40:28;23.80;99.90
4564;DHT22;2294;51.818;8.484;2022-09-09T14:42:57;24.20;99.90
4564;DHT22;2294;51.818;8.484;2022-09-09T14:45:24;24.30;99.90
4564;DHT22;2294;51.818;8.484;2022-09-09T14:47:52;23.60;99.90
4564;DHT22;2294;51.818;8.484;2022-09-09T14:50:19;24.90;99.90
4564;DHT22;2294;51.818;8.484;2022-09-09T14:52:46;25.50;99.90
4564;DHT22;2294;51.818;8.484;2022-09-09T14:55:14;25.90;99.90
4564;DHT22;2294;51.818;8.484;2022-09-09T14:57:41;28.70;99.90
4564;DHT22;2294;51.818;8.484;2022-09-09T15:00:10;26.40;99.90
4564;DHT22;2294;51.818;8.484;2022-09-09T15:02:39;26.20;99.90
4564;DHT22;2294;51.818;8.484;2022-09-09T15:05:06;29.20;99.90
4564;DHT22;2294;51.818;8.484;2022-09-09T15:07:33;27.00;99.90
4564;DHT22;2294;51.818;8.484;2022-09-09T15:10:02;25.20;99.90
4564;DHT22;2294;51.818;8.484;2022-09-09T15:12:29;23.70;99.90
4564;DHT22;2294;51.818;8.484;2022-09-09T15:14:56;23.30;99.90
4564;DHT22;2294;51.818;8.484;2022-09-09T15:17:24;23.00;99.90
4564;DHT22;2294;51.818;8.484;2022-09-09T15:19:51;22.90;99.90
4564;DHT22;2294;51.818;8.484;2022-09-09T15:22:18;22.50;99.90
4564;DHT22;2294;51.818;8.484;2022-09-09T15:24:45;22.50;99.90
4564;DHT22;2294;51.818;8.484;2022-09-09T15:27:12;23.10;99.90
4564;DHT22;2294;51.818;8.484;2022-09-09T15:29:40;22.60;99.90
4564;DHT22;2294;51.818;8.484;2022-09-09T15:32:07;22.40;99.90
4564;DHT22;2294;51.818;8.484;2022-09-09T15:34:35;22.30;99.90
4564;DHT22;2294;51.818;8.484;2022-09-09T15:37:02;22.50;99.90
4564;DHT22;2294;51.818;8.484;2022-09-09T15:39:29;21.90;99.90
4564;DHT22;2294;51.818;8.484;2022-09-09T15:41:56;21.60;99.90
4564;DHT22;2294;51.818;8.484;2022-09-09T15:44:23;20.70;99.90
4564;DHT22;2294;51.818;8.484;2022-09-09T15:46:52;21.50;99.90
4564;DHT22;2294;51.818;8.484;2022-09-09T15:49:21;21.40;99.90
4564;DHT22;2294;51.818;8.484;2022-09-09T15:51:53;21.30;99.90
4564;DHT22;2294;51.818;8.484;2022-09-09T15:54:22;21.30;99.90
4564;DHT22;2294;51.818;8.484;2022-09-09T15:56:52;21.20;99.90
4564;DHT22;2294;51.818;8.484;2022-09-09T15:59:20;21.30;99.90
4564;DHT22;2294;51.818;8.484;2022-09-09T16:01:47;21.00;99.90
4564;DHT22;2294;51.818;8.484;2022-09-09T16:04:17;21.00;99.90
4564;DHT22;2294;51.818;8.484;2022-09-09T16:06:49;20.60;99.90
4564;DHT22;2294;51.818;8.484;2022-09-09T16:09:18;20.30;99.90
4564;DHT22;2294;51.818;8.484;2022-09-09T16:11:46;20.60;99.90
4564;DHT22;2294;51.818;8.484;2022-09-09T16:14:13;21.00;99.90
4564;DHT22;2294;51.818;8.484;2022-09-09T16:16:41;21.00;99.90
4564;DHT22;2294;51.818;8.484;2022-09-09T16:19:10;20.60;99.90
4564;DHT22;2294;51.818;8.484;2022-09-09T16:21:39;20.50;99.90
4564;DHT22;2294;51.818;8.484;2022-09-09T16:24:07;20.40;99.90
4564;DHT22;2294;51.818;8.484;2022-09-09T16:26:38;20.20;99.90
4564;DHT22;2294;51.818;8.484;2022-09-09T16:29:05;20.10;99.90